createdAt,value
2023-03-04T00:02:20.310Z,102708.78
2023-03-04T00:04:47.095Z,102712.44
2023-03-04T00:07:19.091Z,102692.25
2023-03-04T00:09:46.505Z,102687.03
2023-03-04T00:12:17.641Z,102678.13
2023-03-04T00:14:44.248Z,102707.94
2023-03-04T00:17:10.901Z,102703.50
2023-03-04T00:19:37.713Z,102667.63
2023-03-04T00:22:04.683Z,102664.91
2023-03-04T00:24:32.125Z,102703.56
2023-03-04T00:26:59.170Z,102571.13
2023-03-04T00:29:26.016Z,102686.97
2023-03-04T00:31:52.760Z,102691.34
2023-03-04T00:34:22.334Z,102704.59
2023-03-04T00:36:49.115Z,102679.94
2023-03-04T00:39:16.003Z,102706.44
2023-03-04T00:41:42.982Z,102695.66
2023-03-04T00:44:09.564Z,102702.94
2023-03-04T00:46:36.120Z,102691.34
2023-03-04T00:49:05.077Z,102692.09
2023-03-04T00:51:31.884Z,102686.09
2023-03-04T00:54:01.164Z,102700.28
2023-03-04T00:56:28.170Z,102482.28
2023-03-04T00:58:54.956Z,102686.44
2023-03-04T01:01:21.686Z,102709.38
2023-03-04T01:03:48.277Z,102576.84
2023-03-04T01:06:18.136Z,102685.59
2023-03-04T01:08:45.033Z,102701.53
2023-03-04T01:11:12.269Z,102683.16
2023-03-04T01:13:39.793Z,102704.09
2023-03-04T01:16:07.439Z,102671.63
2023-03-04T01:18:34.294Z,102681.09
2023-03-04T01:21:01.097Z,102706.81
2023-03-04T01:23:27.889Z,102678.75
2023-03-04T01:25:54.588Z,102706.00
2023-03-04T01:28:21.162Z,102703.31
2023-03-04T01:30:50.172Z,102693.84
2023-03-04T01:33:19.159Z,102655.78
2023-03-04T01:35:45.919Z,102686.66
2023-03-04T01:38:14.775Z,102690.81
2023-03-04T01:40:41.397Z,102498.81
2023-03-04T01:43:13.081Z,102678.31
2023-03-04T01:45:43.379Z,102670.41
2023-03-04T01:48:14.604Z,102668.56
2023-03-04T01:50:45.787Z,102679.97
2023-03-04T01:53:22.077Z,102666.56
2023-03-04T01:55:49.233Z,102639.25
2023-03-04T01:58:18.196Z,102647.94
2023-03-04T02:00:44.958Z,102669.09
2023-03-04T02:03:19.778Z,102621.53
2023-03-04T02:05:50.088Z,102651.22
2023-03-04T02:08:19.303Z,102648.72
2023-03-04T02:10:46.389Z,102652.09
2023-03-04T02:13:14.730Z,102654.72
2023-03-04T02:15:42.890Z,102635.47
2023-03-04T02:18:20.769Z,102646.66
2023-03-04T02:21:04.638Z,102646.88
2023-03-04T02:23:39.462Z,102653.09
2023-03-04T02:26:11.334Z,102652.22
2023-03-04T02:28:40.346Z,102647.78
2023-03-04T02:31:07.336Z,102655.03
2023-03-04T02:33:34.032Z,102646.88
2023-03-04T02:36:00.658Z,102612.59
2023-03-04T02:38:27.321Z,102643.31
2023-03-04T02:40:56.110Z,102637.03
2023-03-04T02:43:24.921Z,102608.78
2023-03-04T02:45:51.610Z,102638.03
2023-03-04T02:48:24.087Z,102503.41
2023-03-04T02:50:53.040Z,102620.03
2023-03-04T02:53:21.221Z,102598.28
2023-03-04T02:55:50.361Z,102599.78
2023-03-04T02:58:17.268Z,102614.75
2023-03-04T03:00:43.908Z,102631.53
2023-03-04T03:03:13.043Z,102540.03
2023-03-04T03:05:40.177Z,102565.88
2023-03-04T03:08:09.682Z,102625.38
2023-03-04T03:10:36.434Z,102619.88
2023-03-04T03:13:03.191Z,102620.78
2023-03-04T03:15:29.944Z,102620.03
2023-03-04T03:17:57.771Z,102540.78
2023-03-04T03:20:27.001Z,102623.56
2023-03-04T03:22:53.565Z,102613.66
2023-03-04T03:25:20.187Z,102618.28
2023-03-04T03:27:46.875Z,102612.81
2023-03-04T03:30:15.210Z,102610.16
2023-03-04T03:32:44.054Z,102580.25
2023-03-04T03:35:13.347Z,102613.81
2023-03-04T03:37:39.965Z,102602.34
2023-03-04T03:40:07.220Z,102603.22
2023-03-04T03:42:36.265Z,102609.34
2023-03-04T03:45:03.052Z,102605.84
2023-03-04T03:47:29.669Z,102594.44
2023-03-04T03:49:56.236Z,102605.69
2023-03-04T03:52:22.786Z,102567.00
2023-03-04T03:54:49.480Z,102501.88
2023-03-04T03:57:16.049Z,102574.84
2023-03-04T03:59:42.652Z,102599.34
2023-03-04T04:02:09.307Z,102601.13
2023-03-04T04:04:36.058Z,102599.34
2023-03-04T04:07:02.676Z,102522.28
2023-03-04T04:09:32.206Z,102586.38
2023-03-04T04:12:01.441Z,102586.25
2023-03-04T04:14:27.997Z,102605.53
2023-03-04T04:16:54.657Z,102590.72
2023-03-04T04:19:21.790Z,102608.31
2023-03-04T04:21:49.090Z,102608.16
2023-03-04T04:24:16.270Z,102610.00
2023-03-04T04:26:43.194Z,102575.84
2023-03-04T04:29:15.202Z,102603.69
2023-03-04T04:31:42.118Z,102593.19
2023-03-04T04:34:09.090Z,102545.16
2023-03-04T04:36:38.032Z,102593.19
2023-03-04T04:39:07.151Z,102596.06
2023-03-04T04:41:41.501Z,102612.72
2023-03-04T04:44:09.362Z,102613.59
2023-03-04T04:46:36.279Z,102616.38
2023-03-04T04:49:03.787Z,102610.97
2023-03-04T04:51:30.689Z,102608.41
2023-03-04T04:54:01.889Z,102618.28
2023-03-04T04:56:29.212Z,102610.16
2023-03-04T04:59:00.794Z,102612.03
2023-03-04T05:01:27.894Z,102589.31
2023-03-04T05:03:55.552Z,102551.25
2023-03-04T05:06:25.595Z,102607.91
2023-03-04T05:08:54.798Z,102617.38
2023-03-04T05:11:21.484Z,102618.44
2023-03-04T05:13:48.464Z,102617.38
2023-03-04T05:16:16.555Z,102618.28
2023-03-04T05:18:43.582Z,102579.69
2023-03-04T05:21:10.285Z,102617.47
2023-03-04T05:23:39.812Z,102616.59
2023-03-04T05:26:08.814Z,102623.84
2023-03-04T05:28:35.530Z,102611.25
2023-03-04T05:31:04.844Z,102583.19
2023-03-04T05:33:33.763Z,102614.19
2023-03-04T05:36:03.090Z,102613.31
2023-03-04T05:38:32.135Z,102613.69
2023-03-04T05:41:04.216Z,102607.34
2023-03-04T05:43:35.591Z,102617.13
2023-03-04T05:46:07.748Z,102608.41
2023-03-04T05:48:34.344Z,102616.31
2023-03-04T05:51:01.722Z,102620.78
2023-03-04T05:53:29.106Z,102627.16
2023-03-04T05:55:56.000Z,102630.75
2023-03-04T05:58:22.809Z,102632.50
2023-03-04T06:00:49.578Z,102626.50
2023-03-04T06:03:20.617Z,102610.41
2023-03-04T06:05:49.935Z,102609.53
2023-03-04T06:08:16.606Z,102624.38
2023-03-04T06:10:43.284Z,102631.63
2023-03-04T06:13:10.889Z,102616.69
2023-03-04T06:15:39.611Z,102631.69
2023-03-04T06:18:07.631Z,102633.53
2023-03-04T06:20:34.295Z,102634.47
2023-03-04T06:23:00.881Z,102640.84
2023-03-04T06:25:27.759Z,102632.06
2023-03-04T06:27:56.874Z,102629.56
2023-03-04T06:30:26.872Z,102484.94
2023-03-04T06:32:53.444Z,102618.31
2023-03-04T06:35:20.201Z,102635.06
2023-03-04T06:37:47.452Z,102636.91
2023-03-04T06:40:16.564Z,102643.19
2023-03-04T06:42:45.366Z,102638.66
2023-03-04T06:45:14.605Z,102632.69
2023-03-04T06:47:41.228Z,102626.50
2023-03-04T06:50:13.002Z,102635.00
2023-03-04T06:52:40.009Z,102646.53
2023-03-04T06:55:07.800Z,102645.38
2023-03-04T06:57:34.577Z,102607.47
2023-03-04T07:00:03.327Z,102636.31
2023-03-04T07:02:29.916Z,102643.69
2023-03-04T07:04:57.465Z,102645.25
2023-03-04T07:10:08.583Z,102630.97
2023-03-04T07:12:36.470Z,102647.00
2023-03-04T07:15:03.131Z,102633.75
2023-03-04T07:17:29.771Z,102640.63
2023-03-04T07:19:56.477Z,102542.41
2023-03-04T07:22:26.027Z,102647.50
2023-03-04T07:24:55.630Z,102646.63
2023-03-04T07:27:22.275Z,102625.41
2023-03-04T07:29:48.862Z,102474.91
2023-03-04T07:32:15.518Z,102643.75
2023-03-04T07:34:44.513Z,102641.19
2023-03-04T07:37:16.061Z,102644.47
2023-03-04T07:39:42.716Z,102661.97
2023-03-04T07:42:09.386Z,102657.50
2023-03-04T07:44:36.017Z,102665.28
2023-03-04T07:47:02.610Z,102664.25
2023-03-04T07:49:29.173Z,102678.53
2023-03-04T07:51:55.984Z,102675.63
2023-03-04T07:54:22.713Z,102672.56
2023-03-04T07:56:49.321Z,102683.25
2023-03-04T07:59:15.905Z,102678.47
2023-03-04T08:01:45.655Z,102659.84
2023-03-04T08:04:15.344Z,102668.94
2023-03-04T08:06:44.576Z,102664.78
2023-03-04T08:09:14.089Z,102677.41
2023-03-04T08:11:41.934Z,102678.38
2023-03-04T08:14:12.188Z,102676.28
2023-03-04T08:16:38.955Z,102663.09
2023-03-04T08:19:06.361Z,102658.19
2023-03-04T08:21:34.492Z,102687.94
2023-03-04T08:24:08.691Z,102610.38
2023-03-04T08:26:41.852Z,102686.91
2023-03-04T08:29:11.339Z,102676.31
2023-03-04T08:31:39.377Z,102688.38
2023-03-04T08:34:07.806Z,102685.75
2023-03-04T08:36:37.446Z,102641.84
2023-03-04T08:39:05.555Z,102684.28
2023-03-04T08:41:32.234Z,102691.44
2023-03-04T08:44:02.589Z,102694.06
2023-03-04T08:46:29.534Z,102659.44
2023-03-04T08:48:58.354Z,102649.81
2023-03-04T08:51:25.447Z,102679.06
2023-03-04T08:53:54.318Z,102685.72
2023-03-04T08:56:20.950Z,102693.97
2023-03-04T08:58:52.232Z,102683.41
2023-03-04T09:01:18.802Z,102689.44
2023-03-04T09:03:50.416Z,102656.47
2023-03-04T09:06:17.986Z,102672.94
2023-03-04T09:08:47.700Z,102670.88
2023-03-04T09:11:14.683Z,102649.06
2023-03-04T09:13:41.418Z,102660.81
2023-03-04T09:16:15.091Z,102668.00
2023-03-04T09:18:42.224Z,102654.19
2023-03-04T09:21:09.474Z,102637.84
2023-03-04T09:23:37.051Z,102646.53
2023-03-04T09:26:31.829Z,102662.56
2023-03-04T09:29:00.605Z,102658.97
2023-03-04T09:31:29.136Z,102657.31
2023-03-04T09:34:00.111Z,102656.16
2023-03-04T09:36:26.847Z,102655.69
2023-03-04T09:38:53.761Z,102656.16
2023-03-04T09:41:36.596Z,102642.81
2023-03-04T09:44:15.192Z,102651.50
2023-03-04T09:46:45.873Z,102656.09
2023-03-04T09:49:15.840Z,102630.50
2023-03-04T09:51:58.874Z,102642.34
2023-03-04T09:54:56.701Z,102647.59
2023-03-04T09:57:53.480Z,102647.56
2023-03-04T10:00:34.872Z,102641.72
2023-03-04T10:03:10.685Z,102633.72
2023-03-04T10:05:52.742Z,102508.25
2023-03-04T10:08:50.168Z,102634.88
2023-03-04T10:11:27.852Z,102639.44
2023-03-04T10:14:20.185Z,102641.16
2023-03-04T10:16:55.993Z,102645.94
2023-03-04T10:19:30.804Z,102624.47
2023-03-04T10:22:01.857Z,102646.69
2023-03-04T10:24:30.243Z,102578.34
2023-03-04T10:27:04.948Z,102651.63
2023-03-04T10:29:33.393Z,102657.53
2023-03-04T10:32:00.257Z,102653.88
2023-03-04T10:34:30.033Z,102652.94
2023-03-04T10:37:08.866Z,102655.06
2023-03-04T10:39:46.288Z,102648.47
2023-03-04T10:42:15.839Z,102653.50
2023-03-04T10:45:00.516Z,102646.41
2023-03-04T10:47:32.795Z,102652.53
2023-03-04T10:50:02.118Z,102639.56
2023-03-04T10:52:55.846Z,102642.38
2023-03-04T10:55:27.524Z,102644.22
2023-03-04T10:57:57.997Z,102641.47
2023-03-04T11:00:26.701Z,102644.03
2023-03-04T11:03:13.390Z,102610.00
2023-03-04T11:05:40.006Z,102621.53
2023-03-04T11:08:18.653Z,102603.94
2023-03-04T11:10:45.623Z,102598.28
2023-03-04T11:13:12.127Z,102603.72
2023-03-04T11:15:59.084Z,102609.50
2023-03-04T11:18:46.788Z,102602.47
2023-03-04T11:21:24.009Z,102592.94
2023-03-04T11:23:58.943Z,102617.34
2023-03-04T11:26:40.167Z,102624.25
2023-03-04T11:29:18.947Z,102617.72
2023-03-04T11:31:45.458Z,102613.34
2023-03-04T11:34:27.947Z,102606.31
2023-03-04T11:36:57.379Z,102605.84
2023-03-04T11:39:29.993Z,102587.13
2023-03-04T11:42:12.788Z,102563.19
2023-03-04T11:44:41.473Z,102577.44
2023-03-04T11:47:28.892Z,102573.31
2023-03-04T11:50:08.694Z,102582.38
2023-03-04T11:52:35.232Z,102583.25
2023-03-04T11:55:38.245Z,102569.63
2023-03-04T11:58:19.267Z,102555.13
2023-03-04T12:01:02.091Z,102567.34
2023-03-04T12:04:12.356Z,102562.91
2023-03-04T12:06:54.221Z,102562.63
2023-03-04T12:09:45.665Z,102552.31
2023-03-04T12:12:24.354Z,102554.03
2023-03-04T12:15:26.224Z,102542.06
2023-03-04T12:18:08.138Z,102536.22
2023-03-04T12:21:01.103Z,102533.63
2023-03-04T12:24:01.635Z,102528.81
2023-03-04T12:26:31.224Z,102539.94
2023-03-04T12:28:57.739Z,102538.91
2023-03-04T12:31:42.441Z,102528.81
2023-03-04T12:34:30.315Z,102521.84
2023-03-04T12:37:12.138Z,102521.00
2023-03-04T12:40:13.189Z,102513.97
2023-03-04T12:43:13.286Z,102507.31
2023-03-04T12:45:58.776Z,102424.63
2023-03-04T12:48:41.992Z,102502.97
2023-03-04T12:51:32.331Z,102504.63
2023-03-04T12:54:20.915Z,102487.66
2023-03-04T12:56:56.282Z,102381.19
2023-03-04T12:59:28.838Z,102508.78
2023-03-04T13:02:12.216Z,102509.28
2023-03-04T13:04:41.635Z,102510.69
2023-03-04T13:07:34.045Z,102507.50
2023-03-04T13:10:16.855Z,102496.44
2023-03-04T13:13:04.543Z,102497.09
2023-03-04T13:15:33.122Z,102514.00
2023-03-04T13:18:21.827Z,102507.69
2023-03-04T13:21:06.105Z,102486.78
2023-03-04T13:23:33.049Z,102501.66
2023-03-04T13:26:00.070Z,102491.47
2023-03-04T13:28:31.347Z,102493.22
2023-03-04T13:30:59.581Z,102486.91
2023-03-04T13:33:26.195Z,102493.44
2023-03-04T13:36:02.392Z,102484.00
2023-03-04T13:38:35.059Z,102480.59
2023-03-04T13:41:16.774Z,102472.22
2023-03-04T13:43:56.572Z,102467.91
2023-03-04T13:46:27.460Z,102474.72
2023-03-04T13:48:57.135Z,102472.00
2023-03-04T13:51:41.427Z,102456.66
2023-03-04T13:54:16.260Z,102456.66
2023-03-04T13:56:50.912Z,102459.09
2023-03-04T13:59:48.018Z,102466.50
2023-03-04T14:02:20.166Z,102468.56
2023-03-04T14:04:57.032Z,102463.69
2023-03-04T14:07:29.673Z,102477.78
2023-03-04T14:10:23.285Z,102474.47
2023-03-04T14:12:59.095Z,102468.75
2023-03-04T14:15:30.864Z,102456.59
2023-03-04T14:18:00.058Z,102419.03
2023-03-04T14:20:37.698Z,102456.88
2023-03-04T14:23:23.314Z,102420.16
2023-03-04T14:25:50.073Z,102435.75
2023-03-04T14:28:19.860Z,102435.53
2023-03-04T14:30:55.714Z,102424.63
2023-03-04T14:33:25.708Z,102409.00
2023-03-04T14:35:55.257Z,102431.22
2023-03-04T14:38:38.158Z,102431.03
2023-03-04T14:41:19.764Z,102432.13
2023-03-04T14:44:17.154Z,102434.28
2023-03-04T14:47:06.357Z,102378.22
2023-03-04T14:49:36.853Z,102428.75
2023-03-04T14:52:03.891Z,102423.03
2023-03-04T14:54:33.566Z,102422.47
2023-03-04T14:57:23.811Z,102429.47
2023-03-04T14:59:51.883Z,102440.25
2023-03-04T15:02:33.360Z,102430.19
2023-03-04T15:05:25.845Z,102431.81
2023-03-04T15:07:58.017Z,102423.66
2023-03-04T15:10:28.625Z,102325.47
2023-03-04T15:13:00.938Z,102421.31
2023-03-04T15:15:35.880Z,102407.31
2023-03-04T15:18:27.760Z,102426.44
2023-03-04T15:21:06.005Z,102422.78
2023-03-04T15:23:33.929Z,102394.41
2023-03-04T15:26:05.912Z,102392.56
2023-03-04T15:28:38.250Z,102417.25
2023-03-04T15:31:06.773Z,102412.38
2023-03-04T15:33:34.241Z,102418.00
2023-03-04T15:36:02.748Z,102320.13
2023-03-04T15:38:30.081Z,102419.28
2023-03-04T15:40:59.521Z,102409.06
2023-03-04T15:43:26.981Z,102407.63
2023-03-04T15:45:54.152Z,102422.06
2023-03-04T15:48:23.481Z,102428.06
2023-03-04T15:50:56.607Z,102427.75
2023-03-04T15:53:55.377Z,102423.78
2023-03-04T15:56:25.757Z,102411.16
2023-03-04T15:59:06.744Z,102415.81
2023-03-04T16:01:41.340Z,102415.13
2023-03-04T16:04:21.460Z,102406.31
2023-03-04T16:06:50.394Z,102399.19
2023-03-04T16:09:19.989Z,102401.16
2023-03-04T16:11:47.897Z,102387.94
2023-03-04T16:14:16.233Z,102405.31
2023-03-04T16:16:44.421Z,102401.06
2023-03-04T16:19:11.140Z,102406.19
2023-03-04T16:21:38.018Z,102364.22
2023-03-04T16:24:12.571Z,102375.41
2023-03-04T16:26:39.587Z,102380.16
2023-03-04T16:29:06.213Z,102394.81
2023-03-04T16:31:35.232Z,102405.88
2023-03-04T16:34:01.900Z,102405.09
2023-03-04T16:36:31.972Z,102400.84
2023-03-04T16:39:03.481Z,102351.84
2023-03-04T16:41:30.808Z,102387.88
2023-03-04T16:44:01.237Z,102398.47
2023-03-04T16:46:28.294Z,102404.88
2023-03-04T16:48:57.742Z,102375.50
2023-03-04T16:51:24.870Z,102395.97
2023-03-04T16:53:56.285Z,102371.84
2023-03-04T16:56:23.803Z,102414.03
2023-03-04T16:58:50.492Z,102414.22
2023-03-04T17:01:26.287Z,102400.56
2023-03-04T17:03:56.749Z,102416.75
2023-03-04T17:06:25.766Z,102417.72
2023-03-04T17:08:52.396Z,102416.75
2023-03-04T17:11:23.937Z,102417.72
2023-03-04T17:13:51.541Z,102415.19
2023-03-04T17:16:18.757Z,102142.44
2023-03-04T17:18:48.672Z,102391.75
2023-03-04T17:21:20.165Z,102414.41
2023-03-04T17:23:46.862Z,102415.75
2023-03-04T17:26:16.809Z,102424.66
2023-03-04T17:28:43.629Z,102426.50
2023-03-04T17:31:16.594Z,102417.47
2023-03-04T17:33:43.905Z,102417.63
2023-03-04T17:36:12.788Z,102393.13
2023-03-04T17:38:39.741Z,102420.66
2023-03-04T17:41:09.250Z,102342.94
2023-03-04T17:43:36.088Z,102428.88
2023-03-04T17:46:08.248Z,102239.25
2023-03-04T17:48:37.590Z,102430.00
2023-03-04T17:51:04.517Z,102428.25
2023-03-04T17:53:36.399Z,102434.66
2023-03-04T17:56:05.618Z,102437.28
2023-03-04T17:58:35.219Z,102243.91
2023-03-04T18:01:04.143Z,102439.09
2023-03-04T18:03:30.970Z,102416.94
2023-03-04T18:05:57.758Z,102400.16
2023-03-04T18:08:24.346Z,102441.63
2023-03-04T18:10:51.031Z,102434.47
2023-03-04T18:13:17.764Z,102415.13
2023-03-04T18:15:46.850Z,102433.50
2023-03-04T18:18:15.936Z,102426.41
2023-03-04T18:20:42.763Z,102435.25
2023-03-04T18:23:09.364Z,102428.31
2023-03-04T18:25:38.436Z,102410.75
2023-03-04T18:28:05.169Z,102411.44
2023-03-04T18:30:32.241Z,102433.41
2023-03-04T18:33:02.767Z,102431.59
2023-03-04T18:35:31.813Z,102430.78
2023-03-04T18:38:01.265Z,102431.69
2023-03-04T18:40:31.754Z,102406.44
2023-03-04T18:43:00.115Z,102395.78
2023-03-04T18:45:29.109Z,102436.38
2023-03-04T18:47:59.118Z,102422.38
2023-03-04T18:50:26.121Z,102408.19
2023-03-04T18:52:55.171Z,102431.84
2023-03-04T18:55:22.754Z,102410.31
2023-03-04T18:57:52.822Z,102416.00
2023-03-04T19:00:23.996Z,102436.38
2023-03-04T19:03:06.363Z,102420.00
2023-03-04T19:05:33.688Z,102429.66
2023-03-04T19:08:00.305Z,102436.47
2023-03-04T19:10:28.974Z,102421.84
2023-03-04T19:12:57.520Z,102413.88
2023-03-04T19:15:24.288Z,102437.53
2023-03-04T19:17:53.088Z,102419.75
2023-03-04T19:20:19.822Z,102432.19
2023-03-04T19:22:46.557Z,102429.56
2023-03-04T19:25:15.540Z,102422.47
2023-03-04T19:27:44.588Z,102415.13
2023-03-04T19:30:11.748Z,102415.56
2023-03-04T19:32:38.386Z,102399.97
2023-03-04T19:35:05.385Z,102416.84
2023-03-04T19:37:32.044Z,102322.19
2023-03-04T19:39:58.645Z,102407.25
2023-03-04T19:42:27.660Z,102423.69
2023-03-04T19:44:56.736Z,102413.88
2023-03-04T19:47:23.313Z,102415.72
2023-03-04T19:49:49.893Z,102281.28
2023-03-04T19:52:21.300Z,102399.44
2023-03-04T19:54:47.844Z,102424.13
2023-03-04T19:57:14.437Z,102400.31
2023-03-04T19:59:43.261Z,102402.41
2023-03-04T20:02:09.821Z,102368.38
2023-03-04T20:04:36.412Z,102399.16
2023-03-04T20:07:03.732Z,102410.63
2023-03-04T20:09:30.323Z,102418.59
2023-03-04T20:11:59.166Z,102403.88
2023-03-04T20:14:28.642Z,102402.22
2023-03-04T20:17:00.901Z,102208.03
2023-03-04T20:19:27.617Z,102408.44
2023-03-04T20:21:54.452Z,102416.75
2023-03-04T20:24:23.290Z,102431.69
2023-03-04T20:26:50.541Z,102420.41
2023-03-04T20:29:17.686Z,102349.31
2023-03-04T20:31:44.970Z,102415.22
2023-03-04T20:34:14.266Z,102424.78
2023-03-04T20:36:41.222Z,102393.19
2023-03-04T20:39:25.749Z,102419.38
2023-03-04T20:41:55.745Z,102429.25
2023-03-04T20:44:22.356Z,102409.03
2023-03-04T20:46:48.954Z,102430.13
2023-03-04T20:49:24.550Z,102432.94
2023-03-04T20:52:03.262Z,102432.94
2023-03-04T20:54:30.400Z,102438.44
2023-03-04T20:56:59.241Z,102441.06
2023-03-04T20:59:26.513Z,102346.28
2023-03-04T21:01:59.379Z,102422.50
2023-03-04T21:04:26.282Z,102435.81
2023-03-04T21:06:53.973Z,102432.28
2023-03-04T21:09:22.365Z,102429.78
2023-03-04T21:11:52.206Z,102426.41
2023-03-04T21:14:24.486Z,102418.34
2023-03-04T21:16:59.823Z,102417.66
2023-03-04T21:19:32.084Z,102416.94
2023-03-04T21:21:59.851Z,102417.03
2023-03-04T21:24:30.905Z,102412.75
2023-03-04T21:26:58.125Z,102417.28
2023-03-04T21:29:28.108Z,102389.19
2023-03-04T21:32:24.952Z,102411.16
2023-03-04T21:34:53.309Z,102412.03
2023-03-04T21:37:24.233Z,102367.19
2023-03-04T21:39:51.056Z,102406.69
2023-03-04T21:42:17.746Z,102389.97
2023-03-04T21:44:50.820Z,102401.34
2023-03-04T21:47:21.534Z,102396.81
2023-03-04T21:49:50.852Z,102400.47
2023-03-04T21:52:19.329Z,102393.50
2023-03-04T21:54:48.391Z,102393.28
2023-03-04T21:57:17.676Z,102396.28
2023-03-04T21:59:44.314Z,102375.31
2023-03-04T22:02:24.397Z,102383.19
2023-03-04T22:04:51.114Z,102388.53
2023-03-04T22:07:18.735Z,102375.31
2023-03-04T22:09:45.345Z,102383.88
2023-03-04T22:12:15.785Z,102392.03
2023-03-04T22:14:42.967Z,102391.22
2023-03-04T22:17:12.002Z,102392.09
2023-03-04T22:19:41.129Z,102359.63
2023-03-04T22:22:10.179Z,102389.38
2023-03-04T22:24:38.977Z,102388.69
2023-03-04T22:27:05.659Z,102360.66
2023-03-04T22:29:32.280Z,102391.31
2023-03-04T22:31:59.172Z,102329.06
2023-03-04T22:34:25.942Z,102374.53
2023-03-04T22:36:57.526Z,102380.63
2023-03-04T22:39:24.169Z,102338.72
2023-03-04T22:41:50.804Z,102385.50
2023-03-04T22:44:19.976Z,102385.50
2023-03-04T22:46:49.121Z,102382.81
2023-03-04T22:49:15.932Z,102354.63
2023-03-04T22:51:44.365Z,102352.00
2023-03-04T22:54:16.613Z,102342.59
2023-03-04T22:56:43.460Z,102370.28
2023-03-04T22:59:10.856Z,102352.00
2023-03-04T23:01:37.768Z,102377.56
2023-03-04T23:04:04.698Z,102363.13
2023-03-04T23:06:31.657Z,102369.50
2023-03-04T23:08:59.338Z,102353.19
2023-03-04T23:11:29.759Z,102331.13
2023-03-04T23:13:57.463Z,102317.22
2023-03-04T23:16:25.646Z,102345.22
2023-03-04T23:18:54.751Z,102348.06
2023-03-04T23:21:24.740Z,102342.03
2023-03-04T23:23:52.718Z,102346.59
2023-03-04T23:26:25.928Z,102339.56
2023-03-04T23:28:55.762Z,102331.94
2023-03-04T23:31:22.939Z,102342.19
2023-03-04T23:33:49.857Z,102323.09
2023-03-04T23:36:21.521Z,102339.81
2023-03-04T23:38:49.039Z,102345.47
2023-03-04T23:41:18.678Z,102332.28
2023-03-04T23:43:46.940Z,102333.38
2023-03-04T23:46:16.365Z,102341.88
2023-03-04T23:48:46.427Z,102329.56
2023-03-04T23:51:20.477Z,102326.31
2023-03-04T23:53:47.990Z,102300.19
2023-03-04T23:56:23.904Z,102322.31
2023-03-04T23:58:50.822Z,102302.47
